createdAt,value
2023-03-03T00:02:39.704Z,35.13
2023-03-03T00:05:27.531Z,36.90
2023-03-03T00:08:14.123Z,30.88
2023-03-03T00:11:03.254Z,31.13
2023-03-03T00:13:52.657Z,31.83
2023-03-03T00:16:39.736Z,31.58
2023-03-03T00:19:26.446Z,26.75
2023-03-03T00:22:27.022Z,33.78
2023-03-03T00:25:29.845Z,24.17
2023-03-03T00:28:28.401Z,26.48
2023-03-03T00:31:18.635Z,23.50
2023-03-03T00:34:24.063Z,25.23
2023-03-03T00:37:26.769Z,27.88
2023-03-03T00:40:21.775Z,24.13
2023-03-03T00:43:18.867Z,24.40
2023-03-03T00:46:05.230Z,27.10
2023-03-03T00:48:52.617Z,23.55
2023-03-03T00:51:39.051Z,23.60
2023-03-03T00:54:26.723Z,25.00
2023-03-03T00:57:13.633Z,27.73
2023-03-03T01:00:01.709Z,26.90
2023-03-03T01:02:50.490Z,26.42
2023-03-03T01:05:37.710Z,28.33
2023-03-03T01:08:24.578Z,30.75
2023-03-03T01:11:16.242Z,28.55
2023-03-03T01:14:02.923Z,27.83
2023-03-03T01:16:50.216Z,28.83
2023-03-03T01:19:37.635Z,32.00
2023-03-03T01:22:24.013Z,31.08
2023-03-03T01:25:11.570Z,34.67
2023-03-03T01:27:59.767Z,36.10
2023-03-03T01:30:46.197Z,34.85
2023-03-03T01:33:33.204Z,33.00
2023-03-03T01:36:24.391Z,31.02
2023-03-03T01:39:11.567Z,33.63
2023-03-03T01:41:57.767Z,31.83
2023-03-03T01:44:45.844Z,32.92
2023-03-03T01:47:35.199Z,31.48
2023-03-03T01:50:33.667Z,29.13
2023-03-03T01:53:24.644Z,34.67
2023-03-03T01:56:11.488Z,30.58
2023-03-03T01:59:02.700Z,35.63
2023-03-03T02:01:51.362Z,36.70
2023-03-03T02:04:38.162Z,38.55
2023-03-03T02:07:29.084Z,39.40
2023-03-03T02:10:18.362Z,34.15
2023-03-03T02:13:04.833Z,42.03
2023-03-03T02:15:51.472Z,34.42
2023-03-03T02:18:39.369Z,37.10
2023-03-03T02:21:27.719Z,38.85
2023-03-03T02:24:19.075Z,39.33
2023-03-03T02:27:08.101Z,38.53
2023-03-03T02:29:54.709Z,42.60
2023-03-03T02:32:41.231Z,40.35
2023-03-03T02:35:34.589Z,39.47
2023-03-03T02:38:26.780Z,39.20
2023-03-03T02:41:22.865Z,45.05
2023-03-03T02:44:13.364Z,41.80
2023-03-03T02:47:00.972Z,41.08
2023-03-03T02:49:47.470Z,44.90
2023-03-03T02:52:33.954Z,45.97
2023-03-03T02:55:20.669Z,45.50
2023-03-03T02:58:07.278Z,42.83
2023-03-03T03:00:55.527Z,39.25
2023-03-03T03:03:42.824Z,45.47
2023-03-03T03:06:30.182Z,48.17
2023-03-03T03:09:18.267Z,42.03
2023-03-03T03:12:06.771Z,44.20
2023-03-03T03:14:54.906Z,39.97
2023-03-03T03:17:43.550Z,48.28
2023-03-03T03:20:30.953Z,43.28
2023-03-03T03:23:18.180Z,41.22
2023-03-03T03:26:05.027Z,35.97
2023-03-03T03:28:52.582Z,41.90
2023-03-03T03:31:39.345Z,39.38
2023-03-03T03:34:27.453Z,45.88
2023-03-03T03:37:17.053Z,43.53
2023-03-03T03:40:06.840Z,41.88
2023-03-03T03:42:53.847Z,48.30
2023-03-03T03:45:40.657Z,50.00
2023-03-03T03:48:27.687Z,51.08
2023-03-03T03:51:16.561Z,46.10
2023-03-03T03:54:03.135Z,51.58
2023-03-03T03:56:49.788Z,49.15
2023-03-03T03:59:36.447Z,48.45
2023-03-03T04:02:23.849Z,44.25
2023-03-03T04:05:10.825Z,49.22
2023-03-03T04:07:59.155Z,42.22
2023-03-03T04:10:45.776Z,46.85
2023-03-03T04:13:35.135Z,48.50
2023-03-03T04:16:22.959Z,45.67
2023-03-03T04:19:10.262Z,45.78
2023-03-03T04:21:58.102Z,44.90
2023-03-03T04:24:48.547Z,42.40
2023-03-03T04:27:37.881Z,42.97
2023-03-03T04:30:24.900Z,41.65
2023-03-03T04:33:14.168Z,41.70
2023-03-03T04:36:01.286Z,43.45
2023-03-03T04:38:49.093Z,48.58
2023-03-03T04:41:37.250Z,42.95
2023-03-03T04:44:24.167Z,50.15
2023-03-03T04:47:11.707Z,45.60
2023-03-03T04:49:58.311Z,46.63
2023-03-03T04:52:45.015Z,46.05
2023-03-03T04:55:33.067Z,46.28
2023-03-03T04:58:21.718Z,46.08
2023-03-03T05:01:08.156Z,50.25
2023-03-03T05:03:54.950Z,47.42
2023-03-03T05:06:42.309Z,47.65
2023-03-03T05:09:29.035Z,45.30
2023-03-03T05:12:15.111Z,47.65
2023-03-03T05:15:02.911Z,44.10
2023-03-03T05:17:49.056Z,45.60
2023-03-03T05:20:35.624Z,47.60
2023-03-03T05:23:23.321Z,43.17
2023-03-03T05:26:09.441Z,47.90
2023-03-03T05:28:56.059Z,43.17
2023-03-03T05:31:45.564Z,44.33
2023-03-03T05:34:32.196Z,43.30
2023-03-03T05:37:18.760Z,42.40
2023-03-03T05:40:06.759Z,41.20
2023-03-03T05:42:53.531Z,42.80
2023-03-03T05:45:40.037Z,45.45
2023-03-03T05:48:27.758Z,43.55
2023-03-03T05:51:14.268Z,43.67
2023-03-03T05:54:00.713Z,38.47
2023-03-03T05:56:47.280Z,36.85
2023-03-03T05:59:33.657Z,40.08
2023-03-03T06:02:20.094Z,37.90
2023-03-03T06:05:09.397Z,41.72
2023-03-03T06:07:55.852Z,40.55
2023-03-03T06:10:42.326Z,38.70
2023-03-03T06:13:30.910Z,41.70
2023-03-03T06:16:18.131Z,40.90
2023-03-03T06:19:04.462Z,39.55
2023-03-03T06:21:52.090Z,41.55
2023-03-03T06:24:38.688Z,42.70
2023-03-03T06:27:24.851Z,36.30
2023-03-03T06:30:12.932Z,41.67
2023-03-03T06:32:59.638Z,40.85
2023-03-03T06:35:46.275Z,44.40
2023-03-03T06:38:33.954Z,42.58
2023-03-03T06:41:20.521Z,44.22
2023-03-03T06:44:07.742Z,36.45
2023-03-03T06:46:57.236Z,40.15
2023-03-03T06:49:44.017Z,42.97
2023-03-03T06:52:30.444Z,43.50
2023-03-03T06:55:24.410Z,35.20
2023-03-03T06:58:14.289Z,35.92
2023-03-03T07:01:02.299Z,34.28
2023-03-03T07:03:48.855Z,32.50
2023-03-03T07:06:35.889Z,40.33
2023-03-03T07:09:25.028Z,36.78
2023-03-03T07:12:16.537Z,35.38
2023-03-03T07:15:15.898Z,37.30
2023-03-03T07:18:03.191Z,32.38
2023-03-03T07:20:49.709Z,44.00
2023-03-03T07:23:42.629Z,36.42
2023-03-03T07:26:32.813Z,32.90
2023-03-03T07:29:25.889Z,34.17
2023-03-03T07:32:25.854Z,32.60
2023-03-03T07:35:30.648Z,42.53
2023-03-03T07:38:26.450Z,31.05
2023-03-03T07:41:20.855Z,39.97
2023-03-03T07:44:13.381Z,39.88
2023-03-03T07:47:13.712Z,31.13
2023-03-03T07:50:09.012Z,32.50
2023-03-03T07:52:57.981Z,29.80
2023-03-03T07:55:45.716Z,34.92
2023-03-03T07:58:39.613Z,36.38
2023-03-03T08:01:42.582Z,32.00
2023-03-03T08:04:40.283Z,28.33
2023-03-03T08:07:27.268Z,35.33
2023-03-03T08:10:35.937Z,27.02
2023-03-03T08:13:24.496Z,29.52
2023-03-03T08:16:31.148Z,26.40
2023-03-03T08:19:18.911Z,29.52
2023-03-03T08:22:15.888Z,26.75
2023-03-03T08:25:02.646Z,25.73
2023-03-03T08:27:48.921Z,29.42
2023-03-03T08:30:35.585Z,29.15
2023-03-03T08:33:22.077Z,29.95
2023-03-03T08:36:09.200Z,29.42
2023-03-03T08:38:56.842Z,29.73
2023-03-03T08:41:44.346Z,27.85
2023-03-03T08:44:30.825Z,25.10
2023-03-03T08:47:17.325Z,25.25
2023-03-03T08:50:03.888Z,29.45
2023-03-03T08:52:50.079Z,27.27
2023-03-03T08:55:38.140Z,25.17
2023-03-03T08:58:34.720Z,24.98
2023-03-03T09:01:22.349Z,30.60
2023-03-03T09:04:08.796Z,26.23
2023-03-03T09:06:55.337Z,26.08
2023-03-03T09:09:41.713Z,24.42
2023-03-03T09:12:34.409Z,26.00
2023-03-03T09:15:23.771Z,22.30
2023-03-03T09:18:16.576Z,22.30
2023-03-03T09:21:03.056Z,24.65
2023-03-03T09:23:56.113Z,20.23
2023-03-03T09:26:47.441Z,20.98
2023-03-03T09:29:38.314Z,23.52
2023-03-03T09:32:34.787Z,20.33
2023-03-03T09:35:38.776Z,21.42
2023-03-03T09:38:30.968Z,19.70
2023-03-03T09:41:31.551Z,22.85
2023-03-03T09:44:42.974Z,18.77
2023-03-03T09:47:39.440Z,17.02
2023-03-03T09:50:37.645Z,22.42
2023-03-03T09:53:39.617Z,17.08
2023-03-03T09:56:33.825Z,14.88
2023-03-03T09:59:34.172Z,16.92
2023-03-03T10:02:39.345Z,17.15
2023-03-03T10:05:46.392Z,18.55
2023-03-03T10:08:54.766Z,16.98
2023-03-03T10:11:49.234Z,12.60
2023-03-03T10:14:59.704Z,12.68
2023-03-03T10:17:52.272Z,13.38
2023-03-03T10:20:54.329Z,12.38
2023-03-03T10:23:57.657Z,15.07
2023-03-03T10:27:14.282Z,11.88
2023-03-03T10:30:11.967Z,10.60
2023-03-03T10:33:05.464Z,11.07
2023-03-03T10:36:25.185Z,12.18
2023-03-03T10:39:39.684Z,10.82
2023-03-03T10:42:45.173Z,10.73
2023-03-03T10:45:55.719Z,11.13
2023-03-03T10:49:09.994Z,8.18
2023-03-03T10:52:20.369Z,10.18
2023-03-03T10:55:21.366Z,8.80
2023-03-03T10:58:32.311Z,8.75
2023-03-03T11:01:27.821Z,8.75
2023-03-03T11:04:38.115Z,8.93
2023-03-03T11:07:30.033Z,7.72
2023-03-03T11:10:25.501Z,7.18
2023-03-03T11:13:20.968Z,4.82
2023-03-03T11:16:41.477Z,6.15
2023-03-03T11:19:53.857Z,6.95
2023-03-03T11:22:48.012Z,6.78
2023-03-03T11:25:40.174Z,7.32
2023-03-03T11:28:38.658Z,6.28
2023-03-03T11:31:32.461Z,5.47
2023-03-03T11:34:41.133Z,5.15
2023-03-03T11:37:38.357Z,10.85
2023-03-03T11:40:28.781Z,10.90
2023-03-03T11:43:35.415Z,9.52
2023-03-03T11:46:27.615Z,6.65
2023-03-03T11:49:22.703Z,4.57
2023-03-03T11:52:25.259Z,2.97
2023-03-03T11:55:18.594Z,8.10
2023-03-03T11:58:13.776Z,5.63
2023-03-03T12:01:09.544Z,3.55
2023-03-03T12:04:00.929Z,2.92
2023-03-03T12:07:12.994Z,7.13
2023-03-03T12:10:14.866Z,3.13
2023-03-03T12:13:07.495Z,4.93
2023-03-03T12:16:02.656Z,3.15
2023-03-03T12:19:04.025Z,5.35
2023-03-03T12:22:06.557Z,4.57
2023-03-03T12:25:06.169Z,7.07
2023-03-03T12:27:59.588Z,3.08
2023-03-03T12:31:23.687Z,3.60
2023-03-03T12:34:17.767Z,2.17
2023-03-03T12:37:19.412Z,3.83
2023-03-03T12:40:13.197Z,2.22
2023-03-03T12:43:13.809Z,3.90
2023-03-03T12:46:07.955Z,2.30
2023-03-03T12:48:55.830Z,2.08
2023-03-03T12:52:01.211Z,3.03
2023-03-03T12:55:09.455Z,2.90
2023-03-03T12:58:05.222Z,6.47
2023-03-03T13:01:01.303Z,3.03
2023-03-03T13:04:00.247Z,4.43
2023-03-03T13:06:52.182Z,2.90
2023-03-03T13:09:55.789Z,5.75
2023-03-03T13:12:46.361Z,3.42
2023-03-03T13:18:37.239Z,3.97
2023-03-03T13:21:31.915Z,2.10
2023-03-03T13:24:23.536Z,2.65
2023-03-03T13:27:14.006Z,1.58
2023-03-03T13:30:03.660Z,2.38
2023-03-03T13:32:55.940Z,1.30
2023-03-03T13:35:47.360Z,3.35
2023-03-03T13:38:42.540Z,1.65
2023-03-03T13:41:34.823Z,1.75
2023-03-03T13:44:26.600Z,3.17
2023-03-03T13:47:18.524Z,3.17
2023-03-03T13:50:18.421Z,4.07
2023-03-03T13:53:26.854Z,2.60
2023-03-03T13:56:28.371Z,3.53
2023-03-03T13:59:25.864Z,4.10
2023-03-03T14:02:32.893Z,4.07
2023-03-03T14:05:27.776Z,3.10
2023-03-03T14:08:27.320Z,2.90
2023-03-03T14:11:24.873Z,3.50
2023-03-03T14:14:23.299Z,3.00
2023-03-03T14:17:16.867Z,5.50
2023-03-03T14:20:16.647Z,6.13
2023-03-03T14:23:04.597Z,3.58
2023-03-03T14:25:54.462Z,4.45
2023-03-03T14:28:45.309Z,2.50
2023-03-03T14:31:40.871Z,6.10
2023-03-03T14:34:37.141Z,3.00
2023-03-03T14:37:26.234Z,1.27
2023-03-03T14:40:20.478Z,2.78
2023-03-03T14:43:22.842Z,2.47
2023-03-03T14:46:37.077Z,1.15
2023-03-03T14:49:31.678Z,2.72
2023-03-03T14:52:24.857Z,2.38
2023-03-03T14:55:34.048Z,1.65
2023-03-03T14:58:30.235Z,4.97
2023-03-03T15:01:23.043Z,2.60
2023-03-03T15:04:25.724Z,3.20
2023-03-03T15:07:28.757Z,6.18
2023-03-03T15:10:32.228Z,4.05
2023-03-03T15:13:34.623Z,2.03
2023-03-03T15:16:23.755Z,1.80
2023-03-03T15:19:45.859Z,2.97
2023-03-03T15:22:55.657Z,2.88
2023-03-03T15:25:53.762Z,1.20
2023-03-03T15:28:55.461Z,1.48
2023-03-03T15:31:50.341Z,1.00
2023-03-03T15:34:44.275Z,4.55
2023-03-03T15:37:44.503Z,2.60
2023-03-03T15:43:27.950Z,2.45
2023-03-03T15:46:27.111Z,3.08
2023-03-03T15:49:21.093Z,0.90
2023-03-03T15:52:25.423Z,3.03
2023-03-03T15:55:28.958Z,3.28
2023-03-03T15:58:41.242Z,6.70
2023-03-03T16:01:30.723Z,4.63
2023-03-03T16:04:20.807Z,7.93
2023-03-03T16:07:16.759Z,2.40
2023-03-03T16:10:13.984Z,1.23
2023-03-03T16:13:20.042Z,2.35
2023-03-03T16:16:19.054Z,0.85
2023-03-03T16:19:19.015Z,3.70
2023-03-03T16:22:27.349Z,1.38
2023-03-03T16:25:28.019Z,4.93
2023-03-03T16:28:22.110Z,3.75
2023-03-03T16:31:13.562Z,2.50
2023-03-03T16:34:07.111Z,2.92
2023-03-03T16:37:03.708Z,1.98
2023-03-03T16:39:56.474Z,2.58
2023-03-03T16:42:42.535Z,1.15
2023-03-03T16:45:34.464Z,3.53
2023-03-03T16:48:32.303Z,3.13
2023-03-03T16:51:30.651Z,3.15
2023-03-03T16:54:23.494Z,10.38
2023-03-03T16:57:17.869Z,6.32
2023-03-03T17:00:10.507Z,5.97
2023-03-03T17:03:14.799Z,5.68
2023-03-03T17:06:07.171Z,5.38
2023-03-03T17:09:30.301Z,6.68
2023-03-03T17:12:36.069Z,3.38
2023-03-03T17:15:34.789Z,6.70
2023-03-03T17:18:32.270Z,8.07
2023-03-03T17:21:29.722Z,6.22
2023-03-03T17:24:25.623Z,6.63
2023-03-03T17:27:18.568Z,5.53
2023-03-03T17:30:15.536Z,5.35
2023-03-03T17:33:25.713Z,5.93
2023-03-03T17:36:28.533Z,6.00
2023-03-03T17:39:34.121Z,4.60
2023-03-03T17:42:26.338Z,10.95
2023-03-03T17:45:15.541Z,7.90
2023-03-03T17:48:14.837Z,7.40
2023-03-03T17:51:23.862Z,7.50
2023-03-03T17:54:28.196Z,4.38
2023-03-03T17:57:30.608Z,5.80
2023-03-03T18:00:31.334Z,8.05
2023-03-03T18:03:34.146Z,9.15
2023-03-03T18:06:39.727Z,7.72
2023-03-03T18:09:44.702Z,7.30
2023-03-03T18:12:43.770Z,5.45
2023-03-03T18:16:05.287Z,10.93
2023-03-03T18:19:10.816Z,11.23
2023-03-03T18:22:06.573Z,11.40
2023-03-03T18:24:59.872Z,11.05
2023-03-03T18:27:46.860Z,11.70
2023-03-03T18:30:56.213Z,14.10
2023-03-03T18:33:44.919Z,7.45
2023-03-03T18:36:51.812Z,14.45
2023-03-03T18:39:45.736Z,13.57
2023-03-03T18:42:38.177Z,9.95
2023-03-03T18:45:50.775Z,11.77
2023-03-03T18:48:50.344Z,12.15
2023-03-03T18:52:11.053Z,13.65
2023-03-03T18:55:27.218Z,13.73
2023-03-03T18:58:30.231Z,13.50
2023-03-03T19:01:43.176Z,14.20
2023-03-03T19:04:37.703Z,12.18
2023-03-03T19:07:27.990Z,20.95
2023-03-03T19:10:48.233Z,13.38
2023-03-03T19:13:47.824Z,13.27
2023-03-03T19:16:37.471Z,14.32
2023-03-03T19:19:30.090Z,11.30
2023-03-03T19:22:25.710Z,10.48
2023-03-03T19:25:24.193Z,24.67
2023-03-03T19:28:30.323Z,15.63
2023-03-03T19:31:27.634Z,16.92
2023-03-03T19:34:23.116Z,17.40
2023-03-03T19:37:26.272Z,18.38
2023-03-03T19:40:24.060Z,13.38
2023-03-03T19:43:18.448Z,15.98
2023-03-03T19:46:32.661Z,14.80
2023-03-03T19:49:27.933Z,14.13
2023-03-03T19:52:23.402Z,19.50
2023-03-03T19:55:35.587Z,16.55
2023-03-03T19:58:30.261Z,18.13
2023-03-03T20:01:24.616Z,14.82
2023-03-03T20:04:31.050Z,18.63
2023-03-03T20:07:31.227Z,18.30
2023-03-03T20:13:28.533Z,13.93
2023-03-03T20:16:26.709Z,17.90
2023-03-03T20:19:31.124Z,17.75
2023-03-03T20:22:24.026Z,11.15
2023-03-03T20:25:27.004Z,15.88
2023-03-03T20:28:40.442Z,17.17
2023-03-03T20:31:35.622Z,19.63
2023-03-03T20:34:32.161Z,18.63
2023-03-03T20:37:27.307Z,11.30
2023-03-03T20:40:27.200Z,19.67
2023-03-03T20:43:27.275Z,17.45
2023-03-03T20:46:22.260Z,10.97
2023-03-03T20:49:23.750Z,14.70
2023-03-03T20:52:18.704Z,11.48
2023-03-03T20:55:15.613Z,19.55
2023-03-03T20:58:13.682Z,15.35
2023-03-03T21:01:06.826Z,14.68
2023-03-03T21:03:54.289Z,16.35
2023-03-03T21:06:41.446Z,20.05
2023-03-03T21:09:31.824Z,24.27
2023-03-03T21:12:29.723Z,14.85
2023-03-03T21:15:24.950Z,17.48
2023-03-03T21:18:23.789Z,16.27
2023-03-03T21:21:10.142Z,15.40
2023-03-03T21:23:56.808Z,21.02
2023-03-03T21:26:50.159Z,15.23
2023-03-03T21:29:36.889Z,17.83
2023-03-03T21:32:37.082Z,23.17
2023-03-03T21:35:23.708Z,17.25
2023-03-03T21:38:09.941Z,19.40
2023-03-03T21:41:03.661Z,23.70
2023-03-03T21:43:53.461Z,18.95
2023-03-03T21:46:39.994Z,21.35
2023-03-03T21:49:26.507Z,23.10
2023-03-03T21:52:14.306Z,25.63
2023-03-03T21:55:00.538Z,13.73
2023-03-03T21:57:46.877Z,17.73
2023-03-03T22:00:34.610Z,13.80
2023-03-03T22:03:21.233Z,17.83
2023-03-03T22:06:08.363Z,18.88
2023-03-03T22:08:54.449Z,13.07
2023-03-03T22:11:41.057Z,18.80
2023-03-03T22:14:27.715Z,16.25
2023-03-03T22:17:15.823Z,15.98
2023-03-03T22:20:02.058Z,13.85
2023-03-03T22:22:48.541Z,21.20
2023-03-03T22:25:34.767Z,16.73
2023-03-03T22:28:20.846Z,12.23
2023-03-03T22:31:07.368Z,17.02
2023-03-03T22:33:55.020Z,9.63
2023-03-03T22:36:41.226Z,15.50
2023-03-03T22:39:27.669Z,20.20
2023-03-03T22:42:14.183Z,15.73
2023-03-03T22:45:00.673Z,18.65
2023-03-03T22:47:47.026Z,18.10
2023-03-03T22:50:39.350Z,17.77
2023-03-03T22:53:26.260Z,20.65
2023-03-03T22:56:13.036Z,16.63
2023-03-03T22:58:59.402Z,18.83
2023-03-03T23:01:45.977Z,16.38
2023-03-03T23:04:33.564Z,24.08
2023-03-03T23:07:21.470Z,11.35
2023-03-03T23:10:08.971Z,14.23
2023-03-03T23:12:55.589Z,24.05
2023-03-03T23:15:41.809Z,23.98
2023-03-03T23:18:28.637Z,13.90
2023-03-03T23:21:14.991Z,8.98
2023-03-03T23:24:02.915Z,18.95
2023-03-03T23:26:51.703Z,19.48
2023-03-03T23:29:38.313Z,16.00
2023-03-03T23:32:24.764Z,22.45
2023-03-03T23:35:11.578Z,11.18
2023-03-03T23:37:58.086Z,15.77
2023-03-03T23:40:46.959Z,23.35
2023-03-03T23:43:33.572Z,11.40
2023-03-03T23:46:19.677Z,12.57
2023-03-03T23:49:05.864Z,21.42
2023-03-03T23:51:52.452Z,17.63
2023-03-03T23:54:38.961Z,14.82
2023-03-03T23:57:27.242Z,13.63
